Capitol Logistics 229


KSEA
Seattle-Tacoma International Airport
Seattle, Washington, US
PANC
Ted Stevens Anchorage International Airport
Anchorage, Alaska, US

Route Details

Aircraft Information
Primary: Boeing 767-300BDSF
Backup: Not Available
Route Data
Distance: 1257nm
Sched. Duration: 3h 45m
Avg. Duration: 3h 24m (-20m)
Times Flown: 10
Recm'd Route: BANGR9 ARRIE FOCHE PRYCE BKA LAIRE JOH WITTI4
Planned Altitude: 34,000ft
Origin Wx: KSEA 200229Z 06004KT 9SM BKN026 OVC040 12/09 A3018 RMK AO2 T01170089 $
Dest. Wx: PANC 200153Z 03004KT 10SM FEW030 FEW070 02/M03 A3012 RMK AO2 SLP202 T00171033
Notes:

Financial History
Total Freight: 1,174,602lbs
Average Load: 117,460lbs/flt
Fuel Used: 439,212lbs
Avg. Fuel Used: 43,921lbs/flt
Fuel Expense: $491,917
Avg. Fuel Expense: $49,192
Avg. Fuel Cost: $1.12/lbs
Total Gross Income: $1,534,810
Pilot Pay: $1,770
Total Expenses: $166,280
Total Revenue: $870,390
Average Revenue: $153,481.03